Time;durP1;ratioP1;P1;durP2;ratioP2;P2;SDS_P1;SDS_P2;PMS_P1;PMS_P2;Temp;Humidity;BMP_temperature;BMP_pressure;BME280_temperature;BME280_humidity;BME280_pressure;Samples;Min_cycle;Max_cycle;Signal;HPM_P1;HPM_P2
2022/11/22 00:00:02;;;;;;;5.85;1.63;;;;;;;;;;4998508;28;20069;-66
2022/11/22 00:02:29;;;;;;;6.03;1.43;;;;;;;;;;5006597;28;20148;-66
2022/11/22 00:04:55;;;;;;;5.15;1.67;;;;;;;;;;4988878;28;20312;-66
2022/11/22 00:07:22;;;;;;;5.53;1.27;;;;;;;;;;4994375;28;20153;-65
2022/11/22 00:09:48;;;;;;;6.22;1.90;;;;;;;;;;5005696;28;20065;-65
2022/11/22 00:12:15;;;;;;;3.88;1.50;;;;;;;;;;5007128;28;20123;-66
2022/11/22 00:14:41;;;;;;;6.60;1.55;;;;;;;;;;4993110;28;20068;-66
2022/11/22 00:17:09;;;;;;;6.80;1.92;;;;;;;;;;5000898;28;20130;-65
2022/11/22 00:19:38;;;;;;;5.22;1.55;;;;;;;;;;5007169;28;20088;-66
2022/11/22 00:22:04;;;;;;;4.40;1.50;;;;;;;;;;5024360;28;20053;-66
2022/11/22 00:24:31;;;;;;;6.80;1.58;;;;;;;;;;5005309;28;20202;-66
2022/11/22 00:26:57;;;;;;;6.13;1.80;;;;;;;;;;5025442;28;20053;-66
2022/11/22 00:29:24;;;;;;;5.20;1.63;;;;;;;;;;5019770;28;20076;-66
2022/11/22 00:31:50;;;;;;;5.55;1.45;;;;;;;;;;5015371;28;20132;-66
2022/11/22 00:34:18;;;;;;;6.65;1.73;;;;;;;;;;4994872;28;20081;-66
2022/11/22 00:36:45;;;;;;;6.30;2.03;;;;;;;;;;5005313;28;20144;-67
2022/11/22 00:39:11;;;;;;;6.28;1.73;;;;;;;;;;4999964;28;20069;-66
2022/11/22 00:41:38;;;;;;;4.75;1.67;;;;;;;;;;4998074;28;20407;-66
2022/11/22 00:44:05;;;;;;;6.38;2.20;;;;;;;;;;5020810;28;20050;-66
2022/11/22 00:46:31;;;;;;;4.70;1.40;;;;;;;;;;5015595;28;20148;-67
2022/11/22 00:48:57;;;;;;;8.60;2.17;;;;;;;;;;5007565;28;20062;-67
2022/11/22 00:51:25;;;;;;;4.55;1.63;;;;;;;;;;4997978;28;20053;-66
2022/11/22 00:53:52;;;;;;;5.63;1.90;;;;;;;;;;4986914;28;20167;-66
2022/11/22 00:56:18;;;;;;;4.55;1.65;;;;;;;;;;5011200;28;20065;-66
2022/11/22 00:58:44;;;;;;;3.53;1.70;;;;;;;;;;5006026;28;20077;-67
2022/11/22 01:01:11;;;;;;;5.60;1.70;;;;;;;;;;5005897;28;20127;-67
2022/11/22 01:03:37;;;;;;;4.63;1.77;;;;;;;;;;4999138;28;20119;-66
2022/11/22 01:06:04;;;;;;;6.13;1.92;;;;;;;;;;5010893;28;20102;-66
2022/11/22 01:08:32;;;;;;;6.13;1.85;;;;;;;;;;4999010;28;20054;-66
2022/11/22 01:10:59;;;;;;;7.17;1.80;;;;;;;;;;4990272;28;20060;-66
2022/11/22 01:13:26;;;;;;;3.63;1.67;;;;;;;;;;5005414;28;20077;-67
2022/11/22 01:15:52;;;;;;;4.72;1.80;;;;;;;;;;5013252;28;20124;-66
2022/11/22 01:18:19;;;;;;;5.90;1.92;;;;;;;;;;5007687;28;20060;-66
2022/11/22 01:20:46;;;;;;;4.07;1.60;;;;;;;;;;5011793;28;20119;-66
2022/11/22 01:23:12;;;;;;;5.22;1.70;;;;;;;;;;4990235;28;20092;-66
2022/11/22 01:25:42;;;;;;;4.05;1.55;;;;;;;;;;5009102;28;20061;-66
2022/11/22 01:28:09;;;;;;;6.57;1.58;;;;;;;;;;5014972;28;20050;-66
2022/11/22 01:30:35;;;;;;;3.85;1.80;;;;;;;;;;5010997;28;20091;-67
2022/11/22 01:33:02;;;;;;;3.42;1.63;;;;;;;;;;4987298;28;20060;-66
2022/11/22 01:35:28;;;;;;;3.35;1.35;;;;;;;;;;5014871;28;20154;-67
2022/11/22 01:38:05;;;;;;;6.00;1.88;;;;;;;;;;5010326;28;20140;-68
2022/11/22 01:40:35;;;;;;;3.03;1.65;;;;;;;;;;4992331;28;20083;-67
2022/11/22 01:43:03;;;;;;;3.67;1.48;;;;;;;;;;4988569;28;20071;-66
2022/11/22 01:45:50;;;;;;;4.25;1.60;;;;;;;;;;5026465;28;20068;-67
2022/11/22 01:48:31;;;;;;;4.75;1.60;;;;;;;;;;5031940;28;20081;-67
2022/11/22 01:51:01;;;;;;;6.03;1.60;;;;;;;;;;4993782;28;20129;-67
2022/11/22 01:53:29;;;;;;;2.80;1.45;;;;;;;;;;4998116;28;20073;-67
2022/11/22 01:55:57;;;;;;;3.30;1.50;;;;;;;;;;5017783;28;20057;-66
2022/11/22 01:58:26;;;;;;;5.32;1.75;;;;;;;;;;5018563;28;20121;-67
2022/11/22 02:00:53;;;;;;;2.92;1.60;;;;;;;;;;5024148;28;20137;-67
2022/11/22 02:03:20;;;;;;;4.30;1.50;;;;;;;;;;5011998;28;20080;-66
2022/11/22 02:05:46;;;;;;;3.25;1.30;;;;;;;;;;4991962;28;20141;-67
2022/11/22 02:08:16;;;;;;;5.25;1.73;;;;;;;;;;5013004;28;20132;-68
2022/11/22 02:10:44;;;;;;;4.60;1.65;;;;;;;;;;5024577;28;20141;-67
2022/11/22 02:13:11;;;;;;;5.05;1.67;;;;;;;;;;4980629;28;20041;-67
2022/11/22 02:15:39;;;;;;;6.28;1.73;;;;;;;;;;4997376;28;20064;-67
2022/11/22 02:18:05;;;;;;;4.32;1.65;;;;;;;;;;4998700;28;20133;-67
2022/11/22 02:20:32;;;;;;;3.88;1.70;;;;;;;;;;4994753;28;20054;-66
2022/11/22 02:23:03;;;;;;;5.93;1.75;;;;;;;;;;5005077;28;20132;-66
2022/11/22 02:25:32;;;;;;;3.60;1.73;;;;;;;;;;5000802;28;20141;-65
2022/11/22 02:28:00;;;;;;;5.85;1.58;;;;;;;;;;5007835;28;20057;-66
2022/11/22 02:30:27;;;;;;;4.27;1.50;;;;;;;;;;5019144;28;20144;-65
2022/11/22 02:32:53;;;;;;;4.20;1.50;;;;;;;;;;5008425;28;20076;-66
2022/11/22 02:35:20;;;;;;;4.47;1.80;;;;;;;;;;5007844;28;20144;-66
2022/11/22 02:37:47;;;;;;;5.60;1.88;;;;;;;;;;5010611;28;20568;-66
2022/11/22 02:40:14;;;;;;;3.92;1.75;;;;;;;;;;5001159;28;20053;-66
2022/11/22 02:42:42;;;;;;;2.60;1.40;;;;;;;;;;4999890;28;20057;-66
2022/11/22 02:45:10;;;;;;;3.35;1.60;;;;;;;;;;4990221;28;20169;-66
2022/11/22 02:47:37;;;;;;;2.92;1.42;;;;;;;;;;5019437;28;20061;-66
2022/11/22 02:50:04;;;;;;;3.78;1.65;;;;;;;;;;5015681;28;20115;-66
2022/11/22 02:52:30;;;;;;;4.22;1.40;;;;;;;;;;5005856;28;20069;-66
2022/11/22 02:54:56;;;;;;;3.67;1.60;;;;;;;;;;5020209;28;20136;-66
2022/11/22 02:57:23;;;;;;;3.88;1.77;;;;;;;;;;5015355;28;20513;-67
2022/11/22 02:59:49;;;;;;;2.72;1.45;;;;;;;;;;4998967;28;20058;-66
2022/11/22 03:02:17;;;;;;;3.17;1.52;;;;;;;;;;4996393;28;20129;-67
2022/11/22 03:04:44;;;;;;;4.28;1.40;;;;;;;;;;4942566;28;20122;-66
2022/11/22 03:07:10;;;;;;;4.82;1.55;;;;;;;;;;5014693;28;20052;-66
2022/11/22 03:09:37;;;;;;;2.90;1.40;;;;;;;;;;5010129;28;20050;-67
2022/11/22 03:12:06;;;;;;;4.53;1.25;;;;;;;;;;5008123;28;20064;-66
2022/11/22 03:14:33;;;;;;;6.57;1.92;;;;;;;;;;4999392;28;20061;-66
2022/11/22 03:16:59;;;;;;;4.47;1.38;;;;;;;;;;4992751;28;20137;-66
2022/11/22 03:19:27;;;;;;;3.95;1.40;;;;;;;;;;4996747;28;20054;-67
2022/11/22 03:21:53;;;;;;;2.60;1.10;;;;;;;;;;5000329;28;20085;-66
2022/11/22 03:24:20;;;;;;;5.22;1.50;;;;;;;;;;5011357;28;20061;-66
2022/11/22 03:26:47;;;;;;;2.88;1.30;;;;;;;;;;5016867;28;20072;-66
2022/11/22 03:29:13;;;;;;;4.00;1.48;;;;;;;;;;5002841;28;20095;-65
2022/11/22 03:31:40;;;;;;;6.18;1.38;;;;;;;;;;4993648;28;21635;-66
2022/11/22 03:34:06;;;;;;;5.38;1.27;;;;;;;;;;4995140;28;20275;-66
2022/11/22 03:36:34;;;;;;;2.17;1.25;;;;;;;;;;5024381;28;20057;-66
2022/11/22 03:39:00;;;;;;;5.20;1.30;;;;;;;;;;5015012;28;20059;-66
2022/11/22 03:41:27;;;;;;;3.42;1.30;;;;;;;;;;4980228;28;20070;-66
2022/11/22 03:43:53;;;;;;;3.90;1.10;;;;;;;;;;4967577;28;20134;-65
2022/11/22 03:46:20;;;;;;;4.88;1.45;;;;;;;;;;5007704;28;20055;-65
2022/11/22 03:48:47;;;;;;;2.13;1.20;;;;;;;;;;5001566;28;20055;-66
2022/11/22 03:51:14;;;;;;;3.28;1.38;;;;;;;;;;5009521;28;20049;-66
2022/11/22 03:53:42;;;;;;;6.20;1.33;;;;;;;;;;5002362;28;20138;-65
2022/11/22 03:56:08;;;;;;;4.50;1.10;;;;;;;;;;5023694;28;20115;-66
2022/11/22 03:58:35;;;;;;;3.97;1.13;;;;;;;;;;5021123;28;20057;-65
2022/11/22 04:01:01;;;;;;;2.63;0.93;;;;;;;;;;5006375;28;20077;-66
2022/11/22 04:03:30;;;;;;;3.88;1.35;;;;;;;;;;5009284;28;20044;-66
2022/11/22 04:05:57;;;;;;;2.47;1.23;;;;;;;;;;5002577;28;20053;-66
2022/11/22 04:08:23;;;;;;;4.32;1.05;;;;;;;;;;4994216;28;20065;-66
2022/11/22 04:10:51;;;;;;;4.28;1.27;;;;;;;;;;5028392;28;20151;-66
2022/11/22 04:13:18;;;;;;;2.72;1.00;;;;;;;;;;4974118;28;20059;-66
2022/11/22 04:15:44;;;;;;;3.38;1.23;;;;;;;;;;5012092;28;20124;-66
2022/11/22 04:18:10;;;;;;;2.83;1.00;;;;;;;;;;5021416;28;20114;-66
2022/11/22 04:23:25;;;;;;;2.97;1.02;;;;;;;;;;4996416;28;20054;-65
2022/11/22 04:25:52;;;;;;;2.33;0.90;;;;;;;;;;5002318;28;20085;-66
2022/11/22 04:28:20;;;;;;;1.38;0.80;;;;;;;;;;5007035;28;20136;-65
2022/11/22 04:33:30;;;;;;;2.15;1.08;;;;;;;;;;5012472;28;20041;-65
2022/11/22 04:35:57;;;;;;;3.92;0.80;;;;;;;;;;5019261;28;20160;-65
2022/11/22 04:38:23;;;;;;;3.28;1.00;;;;;;;;;;5003386;28;20170;-65
2022/11/22 04:40:50;;;;;;;3.88;1.10;;;;;;;;;;5010041;28;20073;-66
2022/11/22 04:46:05;;;;;;;3.72;0.93;;;;;;;;;;5006336;28;20113;-66
2022/11/22 04:48:32;;;;;;;3.05;1.17;;;;;;;;;;5011621;28;20081;-65
2022/11/22 04:53:43;;;;;;;4.93;0.95;;;;;;;;;;4988879;28;20058;-66
2022/11/22 04:56:09;;;;;;;3.78;1.10;;;;;;;;;;4991718;28;20050;-65
2022/11/22 04:58:37;;;;;;;3.50;0.90;;;;;;;;;;5017311;28;20061;-66
2022/11/22 05:01:04;;;;;;;2.93;0.93;;;;;;;;;;5010645;28;20053;-65
2022/11/22 05:03:30;;;;;;;3.08;0.95;;;;;;;;;;5004448;28;20068;-65
2022/11/22 05:06:00;;;;;;;3.92;1.30;;;;;;;;;;5007009;28;20078;-65
2022/11/22 05:08:26;;;;;;;3.55;1.20;;;;;;;;;;5014424;28;20140;-66
2022/11/22 05:10:59;;;;;;;3.72;1.13;;;;;;;;;;5004334;28;20069;-65
2022/11/22 05:13:27;;;;;;;2.47;0.98;;;;;;;;;;5012965;28;20136;-66
2022/11/22 05:15:56;;;;;;;5.18;1.05;;;;;;;;;;5018047;28;20144;-66
2022/11/22 05:18:22;;;;;;;4.95;1.08;;;;;;;;;;4989830;28;20231;-65
2022/11/22 05:20:49;;;;;;;4.45;1.23;;;;;;;;;;5002685;28;20053;-66
2022/11/22 05:25:59;;;;;;;4.28;1.20;;;;;;;;;;5033537;28;20053;-66
2022/11/22 05:28:27;;;;;;;7.55;1.52;;;;;;;;;;5014263;28;20053;-66
2022/11/22 05:30:55;;;;;;;6.27;1.07;;;;;;;;;;4998489;28;20137;-66
2022/11/22 05:33:22;;;;;;;8.73;1.30;;;;;;;;;;4998462;28;20111;-66
2022/11/22 05:35:48;;;;;;;3.15;1.10;;;;;;;;;;5009684;28;20055;-66
2022/11/22 05:38:15;;;;;;;7.28;1.20;;;;;;;;;;5016631;28;20053;-67
2022/11/22 05:40:41;;;;;;;5.13;1.10;;;;;;;;;;5012301;28;20152;-66
2022/11/22 05:43:07;;;;;;;4.78;1.23;;;;;;;;;;5005466;28;20084;-65
2022/11/22 05:45:34;;;;;;;2.22;0.98;;;;;;;;;;4998129;28;20121;-67
2022/11/22 05:48:02;;;;;;;5.95;1.20;;;;;;;;;;4980192;28;20133;-65
2022/11/22 05:50:28;;;;;;;3.38;1.30;;;;;;;;;;4995616;28;20253;-66
2022/11/22 05:52:55;;;;;;;3.90;1.35;;;;;;;;;;4983450;28;20070;-66
2022/11/22 05:55:21;;;;;;;5.95;1.30;;;;;;;;;;5008585;28;20125;-66
2022/11/22 05:57:47;;;;;;;7.53;1.27;;;;;;;;;;5019308;28;20061;-65
2022/11/22 06:00:14;;;;;;;1.90;0.90;;;;;;;;;;5017548;28;20330;-66
2022/11/22 06:02:41;;;;;;;3.35;1.00;;;;;;;;;;5019302;28;20132;-66
2022/11/22 06:05:09;;;;;;;5.43;1.08;;;;;;;;;;5002666;28;20053;-66
2022/11/22 06:07:35;;;;;;;4.03;1.00;;;;;;;;;;5000150;28;20089;-66
2022/11/22 06:10:02;;;;;;;4.68;1.52;;;;;;;;;;5021248;28;20107;-66
2022/11/22 06:12:28;;;;;;;2.45;0.93;;;;;;;;;;5033186;28;20094;-66
2022/11/22 06:14:55;;;;;;;4.43;1.20;;;;;;;;;;5019596;28;20056;-66
2022/11/22 06:17:21;;;;;;;3.08;0.90;;;;;;;;;;4987151;28;20073;-68
2022/11/22 06:19:47;;;;;;;3.33;0.70;;;;;;;;;;5007850;28;20104;-65
2022/11/22 06:22:15;;;;;;;3.53;1.20;;;;;;;;;;4999491;28;20140;-66
2022/11/22 06:24:42;;;;;;;3.40;1.00;;;;;;;;;;5000654;28;20157;-67
2022/11/22 06:27:09;;;;;;;4.22;0.93;;;;;;;;;;5013267;28;20061;-66
2022/11/22 06:29:35;;;;;;;3.83;1.00;;;;;;;;;;5015502;28;20053;-66
2022/11/22 06:32:02;;;;;;;3.20;1.02;;;;;;;;;;5008568;28;20143;-66
2022/11/22 06:34:28;;;;;;;2.67;1.10;;;;;;;;;;5007381;28;20102;-65
2022/11/22 06:36:55;;;;;;;5.55;1.30;;;;;;;;;;5028489;28;20049;-65
2022/11/22 06:39:23;;;;;;;2.40;1.00;;;;;;;;;;4998273;28;20072;-68
2022/11/22 06:41:49;;;;;;;4.75;1.08;;;;;;;;;;5012603;28;20261;-65
2022/11/22 06:44:16;;;;;;;5.13;1.02;;;;;;;;;;4979885;28;20068;-66
2022/11/22 06:46:42;;;;;;;8.13;1.10;;;;;;;;;;4970973;28;20057;-66
2022/11/22 06:49:10;;;;;;;7.68;1.20;;;;;;;;;;4998135;28;20070;-65
2022/11/22 06:51:37;;;;;;;3.22;0.90;;;;;;;;;;4992843;28;20056;-66
2022/11/22 06:54:03;;;;;;;4.35;1.27;;;;;;;;;;4969366;28;20072;-68
2022/11/22 06:56:32;;;;;;;3.90;1.35;;;;;;;;;;4984726;28;20041;-68
2022/11/22 06:59:01;;;;;;;5.30;1.70;;;;;;;;;;5011584;28;20049;-68
2022/11/22 07:01:29;;;;;;;4.68;1.20;;;;;;;;;;4995488;28;20065;-68
2022/11/22 07:03:56;;;;;;;2.47;1.20;;;;;;;;;;4980805;28;20111;-68
2022/11/22 07:06:25;;;;;;;3.88;1.08;;;;;;;;;;4949031;28;20086;-68
2022/11/22 07:08:52;;;;;;;4.00;0.93;;;;;;;;;;4992446;28;20053;-68
2022/11/22 07:11:21;;;;;;;2.28;0.85;;;;;;;;;;5015938;28;20049;-68
2022/11/22 07:13:49;;;;;;;2.45;0.98;;;;;;;;;;4978771;28;20123;-69
2022/11/22 07:16:17;;;;;;;4.97;1.17;;;;;;;;;;5009895;28;20077;-65
2022/11/22 07:18:44;;;;;;;3.55;0.90;;;;;;;;;;5020006;28;20100;-66
2022/11/22 07:21:12;;;;;;;3.78;0.93;;;;;;;;;;4987579;28;20063;-65
2022/11/22 07:23:38;;;;;;;4.63;1.00;;;;;;;;;;4958134;28;20156;-66
2022/11/22 07:26:05;;;;;;;2.75;0.93;;;;;;;;;;5007343;28;20045;-66
2022/11/22 07:28:31;;;;;;;3.25;1.08;;;;;;;;;;5012303;28;20049;-66
2022/11/22 07:31:00;;;;;;;3.05;0.90;;;;;;;;;;5005130;28;20115;-65
2022/11/22 07:33:26;;;;;;;;;;;;;;;;;;4992612;28;20423;-65
2022/11/22 07:35:56;;;;;;;4.38;1.00;;;;;;;;;;4999977;28;20415;-66
2022/11/22 07:38:22;;;;;;;3.83;0.82;;;;;;;;;;4987353;28;20064;-65
2022/11/22 07:40:49;;;;;;;3.28;1.00;;;;;;;;;;5011178;28;20080;-65
2022/11/22 07:43:21;;;;;;;7.18;1.00;;;;;;;;;;4988659;28;20041;-66
2022/11/22 07:45:47;;;;;;;7.05;1.20;;;;;;;;;;4996745;28;20191;-66
2022/11/22 07:48:18;;;;;;;5.57;1.10;;;;;;;;;;5015634;28;20064;-65
2022/11/22 07:50:47;;;;;;;4.47;1.20;;;;;;;;;;4971800;28;20049;-65
2022/11/22 07:53:14;;;;;;;4.63;1.50;;;;;;;;;;4957475;28;20057;-67
2022/11/22 07:55:41;;;;;;;6.13;1.33;;;;;;;;;;4975864;28;20057;-66
2022/11/22 07:58:10;;;;;;;3.33;1.15;;;;;;;;;;5010382;28;20053;-66
2022/11/22 08:00:36;;;;;;;2.50;0.90;;;;;;;;;;4996975;28;20053;-66
2022/11/22 08:03:03;;;;;;;5.35;1.02;;;;;;;;;;4996165;28;20053;-68
2022/11/22 08:05:45;;;;;;;4.82;0.95;;;;;;;;;;4894983;28;20058;-67
2022/11/22 08:08:14;;;;;;;3.00;0.85;;;;;;;;;;4953695;28;20058;-68
2022/11/22 08:10:45;;;;;;;4.03;0.90;;;;;;;;;;4906074;28;20055;-69
2022/11/22 08:13:14;;;;;;;3.40;0.93;;;;;;;;;;4912790;28;20059;-67
2022/11/22 08:15:47;;;;;;;4.03;1.17;;;;;;;;;;4918940;28;20172;-66
2022/11/22 08:18:15;;;;;;;4.65;1.00;;;;;;;;;;5011744;28;20068;-66
2022/11/22 08:20:43;;;;;;;3.83;1.13;;;;;;;;;;5011585;28;20081;-67
2022/11/22 08:23:10;;;;;;;2.50;0.93;;;;;;;;;;5031810;28;20058;-66
2022/11/22 08:25:36;;;;;;;5.40;0.90;;;;;;;;;;4958392;28;20152;-66
2022/11/22 08:28:03;;;;;;;3.08;0.95;;;;;;;;;;5011976;28;20064;-66
2022/11/22 08:30:29;;;;;;;6.05;1.00;;;;;;;;;;5028902;28;20048;-66
2022/11/22 08:32:56;;;;;;;1.70;0.80;;;;;;;;;;4998488;28;20092;-66
2022/11/22 08:35:25;;;;;;;3.80;0.98;;;;;;;;;;4995242;28;20092;-68
2022/11/22 08:38:01;;;;;;;4.10;0.95;;;;;;;;;;5015784;28;20061;-65
2022/11/22 08:40:27;;;;;;;3.70;0.98;;;;;;;;;;5008860;28;20049;-66
2022/11/22 08:42:55;;;;;;;4.90;0.90;;;;;;;;;;5033972;28;20071;-66
2022/11/22 08:45:24;;;;;;;2.17;1.00;;;;;;;;;;5018103;28;20056;-67
2022/11/22 08:47:51;;;;;;;2.53;0.90;;;;;;;;;;5011465;28;20092;-65
2022/11/22 08:50:21;;;;;;;5.15;0.90;;;;;;;;;;5004731;28;20053;-67
2022/11/22 08:52:48;;;;;;;5.00;1.27;;;;;;;;;;5027883;28;20049;-66
2022/11/22 08:55:18;;;;;;;2.72;0.82;;;;;;;;;;4996432;28;20089;-66
2022/11/22 08:57:47;;;;;;;5.47;1.05;;;;;;;;;;5000632;28;20057;-66
2022/11/22 09:00:14;;;;;;;3.63;0.90;;;;;;;;;;5020706;28;20140;-66
2022/11/22 09:02:41;;;;;;;5.55;1.10;;;;;;;;;;5014498;28;20080;-66
2022/11/22 09:05:12;;;;;;;4.75;1.08;;;;;;;;;;4966109;28;20049;-66
2022/11/22 09:07:42;;;;;;;3.15;0.90;;;;;;;;;;4982355;28;20053;-66
2022/11/22 09:10:11;;;;;;;4.38;1.40;;;;;;;;;;5000899;28;20079;-66
2022/11/22 09:12:42;;;;;;;2.70;0.93;;;;;;;;;;4994285;28;20193;-65
2022/11/22 09:15:11;;;;;;;7.03;1.10;;;;;;;;;;4995771;28;20077;-66
2022/11/22 09:17:37;;;;;;;;;;;;;;;;;;4997846;28;20060;-66
2022/11/22 09:20:06;;;;;;;4.00;0.73;;;;;;;;;;5000690;28;19990;-65
2022/11/22 09:22:32;;;;;;;2.70;0.98;;;;;;;;;;5012037;28;20119;-66
2022/11/22 09:24:59;;;;;;;2.80;0.98;;;;;;;;;;4950064;28;20072;-66
2022/11/22 09:27:25;;;;;;;2.90;1.10;;;;;;;;;;4970019;28;20096;-66
2022/11/22 09:29:59;;;;;;;2.45;0.90;;;;;;;;;;4997758;28;20053;-66
2022/11/22 09:32:25;;;;;;;3.67;1.00;;;;;;;;;;4981503;28;20062;-66
2022/11/22 09:34:55;;;;;;;3.70;1.05;;;;;;;;;;5014719;28;20157;-65
2022/11/22 09:37:24;;;;;;;1.88;0.85;;;;;;;;;;4983089;28;20063;-68
2022/11/22 09:39:50;;;;;;;3.28;1.10;;;;;;;;;;4991731;28;20063;-67
2022/11/22 09:42:27;;;;;;;6.75;0.98;;;;;;;;;;4996756;28;20080;-66
2022/11/22 09:45:04;;;;;;;3.72;0.90;;;;;;;;;;4990141;28;20146;-66
2022/11/22 09:47:37;;;;;;;4.95;1.38;;;;;;;;;;5008139;28;20055;-66
2022/11/22 09:50:09;;;;;;;3.42;0.85;;;;;;;;;;4967537;28;20078;-66
2022/11/22 09:52:40;;;;;;;5.30;0.95;;;;;;;;;;4984469;28;20056;-66
2022/11/22 09:55:13;;;;;;;5.93;1.98;;;;;;;;;;4979677;28;20096;-66
2022/11/22 09:57:43;;;;;;;2.75;0.95;;;;;;;;;;4943049;28;20117;-66
2022/11/22 10:00:18;;;;;;;5.88;1.23;;;;;;;;;;5010799;28;20054;-66
2022/11/22 10:02:48;;;;;;;1.90;0.90;;;;;;;;;;5014535;28;20073;-65
2022/11/22 10:05:20;;;;;;;4.97;1.00;;;;;;;;;;4957720;28;20065;-66
2022/11/22 10:07:50;;;;;;;1.08;0.60;;;;;;;;;;5014375;28;20061;-66
2022/11/22 10:10:22;;;;;;;4.20;1.00;;;;;;;;;;4948462;28;20058;-66
2022/11/22 10:12:52;;;;;;;5.93;1.10;;;;;;;;;;4987382;28;20061;-66
2022/11/22 10:15:25;;;;;;;3.95;1.00;;;;;;;;;;4990995;28;20236;-66
2022/11/22 10:17:53;;;;;;;3.10;0.93;;;;;;;;;;5025020;28;20052;-65
2022/11/22 10:20:22;;;;;;;3.30;1.20;;;;;;;;;;5013009;28;20186;-66
2022/11/22 10:22:49;;;;;;;3.17;1.20;;;;;;;;;;4982812;28;20112;-65
2022/11/22 10:25:21;;;;;;;4.03;0.98;;;;;;;;;;4973988;28;20057;-66
2022/11/22 10:27:49;;;;;;;4.90;0.95;;;;;;;;;;4983700;28;20053;-66
2022/11/22 10:30:19;;;;;;;4.63;1.05;;;;;;;;;;4986350;28;20053;-66
2022/11/22 10:32:55;;;;;;;2.03;0.95;;;;;;;;;;5005807;28;20164;-67
2022/11/22 10:35:32;;;;;;;1.70;0.60;;;;;;;;;;4960926;28;20060;-67
2022/11/22 10:38:03;;;;;;;2.80;0.80;;;;;;;;;;5000081;28;20140;-66
2022/11/22 10:40:35;;;;;;;4.75;0.80;;;;;;;;;;4983607;28;20049;-66
2022/11/22 10:43:12;;;;;;;1.95;0.95;;;;;;;;;;4988815;28;20061;-66
2022/11/22 10:45:43;;;;;;;2.88;1.15;;;;;;;;;;4939848;28;20145;-66
2022/11/22 10:48:17;;;;;;;5.22;0.93;;;;;;;;;;4973271;28;20339;-66
2022/11/22 10:50:50;;;;;;;2.85;0.90;;;;;;;;;;4963010;28;20060;-66
2022/11/22 10:53:21;;;;;;;5.57;1.13;;;;;;;;;;4929110;28;20069;-67
2022/11/22 10:55:51;;;;;;;4.80;1.20;;;;;;;;;;4988320;28;20053;-66
2022/11/22 10:58:26;;;;;;;4.13;0.98;;;;;;;;;;4998880;28;20053;-66
2022/11/22 11:00:58;;;;;;;5.53;1.10;;;;;;;;;;4952939;28;21585;-66
2022/11/22 11:03:35;;;;;;;5.40;1.10;;;;;;;;;;4996884;28;20050;-66
2022/11/22 11:06:09;;;;;;;2.72;0.80;;;;;;;;;;4991747;28;20110;-66
2022/11/22 11:08:37;;;;;;;3.30;0.88;;;;;;;;;;5012693;28;20058;-66
2022/11/22 11:11:07;;;;;;;4.18;1.10;;;;;;;;;;4983323;28;20077;-66
2022/11/22 11:13:41;;;;;;;3.42;1.10;;;;;;;;;;4983114;28;20152;-66
2022/11/22 11:16:09;;;;;;;6.63;1.15;;;;;;;;;;4964611;28;20053;-66
2022/11/22 11:18:40;;;;;;;4.18;0.90;;;;;;;;;;4969535;28;20053;-66
2022/11/22 11:21:07;;;;;;;4.68;1.08;;;;;;;;;;4979336;28;20083;-66
2022/11/22 11:23:34;;;;;;;1.88;0.93;;;;;;;;;;4979712;28;20326;-66
2022/11/22 11:26:19;;;;;;;3.40;1.02;;;;;;;;;;5004724;28;20058;-66
2022/11/22 11:28:45;;;;;;;3.10;0.73;;;;;;;;;;5009192;28;20054;-66
2022/11/22 11:31:14;;;;;;;3.17;1.05;;;;;;;;;;4993533;28;20049;-66
2022/11/22 11:33:40;;;;;;;;;;;;;;;;;;4993096;28;20175;-66
2022/11/22 11:36:10;;;;;;;2.80;1.05;;;;;;;;;;4991718;28;19931;-66
2022/11/22 11:38:40;;;;;;;4.15;1.38;;;;;;;;;;5002395;28;20053;-65
2022/11/22 11:41:23;;;;;;;4.57;0.90;;;;;;;;;;4995023;28;20120;-66
2022/11/22 11:43:52;;;;;;;2.50;0.85;;;;;;;;;;4981680;28;20085;-66
2022/11/22 11:46:21;;;;;;;2.33;0.95;;;;;;;;;;4968951;28;20067;-66
2022/11/22 11:48:48;;;;;;;5.60;1.08;;;;;;;;;;4999207;28;20144;-65
2022/11/22 11:51:25;;;;;;;5.50;1.08;;;;;;;;;;4994746;28;20053;-66
2022/11/22 11:53:57;;;;;;;4.30;1.10;;;;;;;;;;4990503;28;20064;-66
2022/11/22 11:56:34;;;;;;;5.13;1.00;;;;;;;;;;4962544;28;20087;-66
2022/11/22 11:59:06;;;;;;;1.27;0.68;;;;;;;;;;4980962;28;20057;-66
2022/11/22 12:01:36;;;;;;;1.23;0.55;;;;;;;;;;3194111;28;25060056;-66
2022/11/22 12:05:45;;;;;;;3.47;0.80;;;;;;;;;;4777678;28;3548688;-68
2022/11/22 12:08:34;;;;;;;1.98;0.82;;;;;;;;;;4958987;28;20090;-68
2022/11/22 12:11:03;;;;;;;4.20;1.15;;;;;;;;;;4965752;28;20089;-67
2022/11/22 12:13:33;;;;;;;2.13;0.70;;;;;;;;;;4918474;28;20157;-68
2022/11/22 12:16:04;;;;;;;1.35;0.70;;;;;;;;;;4961917;28;20120;-67
2022/11/22 12:18:39;;;;;;;5.10;1.10;;;;;;;;;;4928561;28;20550;-67
2022/11/22 12:21:17;;;;;;;3.40;0.90;;;;;;;;;;4912891;28;20054;-67
2022/11/22 12:23:48;;;;;;;2.20;0.98;;;;;;;;;;4959003;28;20054;-66
2022/11/22 12:26:16;;;;;;;1.58;0.80;;;;;;;;;;4958361;28;20045;-68
2022/11/22 12:28:43;;;;;;;2.20;0.90;;;;;;;;;;4964004;28;20067;-67
2022/11/22 12:31:14;;;;;;;2.50;0.88;;;;;;;;;;4979924;28;20053;-67
2022/11/22 12:33:42;;;;;;;3.03;1.02;;;;;;;;;;4964453;28;20172;-67
2022/11/22 12:36:12;;;;;;;4.43;0.68;;;;;;;;;;4975809;28;20062;-68
2022/11/22 12:38:43;;;;;;;2.30;0.70;;;;;;;;;;4955141;28;20140;-67
2022/11/22 12:41:12;;;;;;;1.98;0.75;;;;;;;;;;4955378;28;20103;-66
2022/11/22 12:43:42;;;;;;;1.42;0.77;;;;;;;;;;4969874;28;20955;-67
2022/11/22 12:46:10;;;;;;;1.98;0.70;;;;;;;;;;4935405;28;20270;-67
2022/11/22 12:48:42;;;;;;;0.95;0.77;;;;;;;;;;4966924;28;20058;-66
2022/11/22 12:51:12;;;;;;;2.10;0.80;;;;;;;;;;4940359;28;20140;-66
2022/11/22 12:53:44;;;;;;;2.25;0.90;;;;;;;;;;4962746;28;20085;-66
2022/11/22 12:56:15;;;;;;;3.92;0.88;;;;;;;;;;4922562;28;20070;-67
2022/11/22 12:58:48;;;;;;;1.45;0.80;;;;;;;;;;4948490;28;20058;-67
2022/11/22 13:01:24;;;;;;;2.70;0.90;;;;;;;;;;4928955;28;20055;-67
2022/11/22 13:03:54;;;;;;;2.70;0.95;;;;;;;;;;4991754;28;20367;-66
2022/11/22 13:06:24;;;;;;;2.72;0.68;;;;;;;;;;4934542;28;20053;-66
2022/11/22 13:09:11;;;;;;;1.67;1.00;;;;;;;;;;4970887;28;20059;-67
2022/11/22 13:11:39;;;;;;;0.93;0.50;;;;;;;;;;4961240;28;20058;-66
2022/11/22 13:14:07;;;;;;;1.42;0.80;;;;;;;;;;4969422;28;20082;-66
2022/11/22 13:16:34;;;;;;;1.90;0.77;;;;;;;;;;4910456;28;20065;-67
2022/11/22 13:19:05;;;;;;;1.73;0.70;;;;;;;;;;4953643;28;20132;-66
2022/11/22 13:21:38;;;;;;;4.50;0.73;;;;;;;;;;4960040;28;20054;-66
2022/11/22 13:24:16;;;;;;;4.60;1.20;;;;;;;;;;4955071;28;20057;-66
2022/11/22 13:26:48;;;;;;;2.10;0.63;;;;;;;;;;4922277;28;20054;-67
2022/11/22 13:29:19;;;;;;;1.67;0.60;;;;;;;;;;4940585;28;20073;-68
2022/11/22 13:32:07;;;;;;;2.17;0.85;;;;;;;;;;4919892;28;20042;-67
2022/11/22 13:34:36;;;;;;;0.98;0.70;;;;;;;;;;4919026;28;20496;-65
2022/11/22 13:37:05;;;;;;;1.60;0.73;;;;;;;;;;4949015;28;20058;-67
2022/11/22 13:39:34;;;;;;;1.20;0.47;;;;;;;;;;4934150;28;20058;-67
2022/11/22 13:42:00;;;;;;;;;;;;;;;;;;4920525;28;20079;-66
2022/11/22 13:44:33;;;;;;;0.88;0.60;;;;;;;;;;4977825;28;20028;-66
2022/11/22 13:47:06;;;;;;;1.08;0.50;;;;;;;;;;4930599;28;20082;-67
2022/11/22 13:49:36;;;;;;;5.20;0.90;;;;;;;;;;4959268;28;20189;-67
2022/11/22 13:52:24;;;;;;;3.03;0.60;;;;;;;;;;4941491;28;20058;-68
2022/11/22 13:55:11;;;;;;;0.60;0.50;;;;;;;;;;4900060;28;20083;-67
2022/11/22 13:57:40;;;;;;;0.55;0.40;;;;;;;;;;4948198;28;20307;-67
2022/11/22 14:00:25;;;;;;;2.60;0.70;;;;;;;;;;4977683;28;20140;-68
2022/11/22 14:03:03;;;;;;;;;;;;;;;;;;;;;
2022/11/22 14:05:34;;;;;;;1.25;0.50;;;;;;;;;;4857688;28;20149;-67
2022/11/22 14:08:03;;;;;;;1.45;0.60;;;;;;;;;;4926448;28;20054;-67
2022/11/22 14:10:32;;;;;;;0.63;0.45;;;;;;;;;;4958789;28;20563;-67
2022/11/22 14:13:06;;;;;;;0.85;0.50;;;;;;;;;;4908477;28;20061;-68
2022/11/22 14:15:51;;;;;;;0.80;0.40;;;;;;;;;;4928604;28;20204;-67
2022/11/22 14:18:33;;;;;;;0.95;0.55;;;;;;;;;;4919576;28;20058;-66
2022/11/22 14:21:03;;;;;;;2.63;0.38;;;;;;;;;;4918350;28;20057;-67
2022/11/22 14:23:36;;;;;;;0.35;0.35;;;;;;;;;;4926545;28;20183;-67
2022/11/22 14:26:10;;;;;;;0.50;0.40;;;;;;;;;;4918133;28;20441;-68
2022/11/22 14:28:49;;;;;;;0.60;0.50;;;;;;;;;;4973071;28;20062;-68
2022/11/22 14:31:21;;;;;;;0.40;0.40;;;;;;;;;;4931210;28;20116;-68
2022/11/22 14:34:06;;;;;;;0.70;0.40;;;;;;;;;;4944281;28;20049;-68
2022/11/22 14:36:33;;;;;;;0.90;0.55;;;;;;;;;;4957343;28;20058;-68
2022/11/22 14:39:00;;;;;;;0.88;0.57;;;;;;;;;;4941691;28;20061;-67
2022/11/22 14:41:30;;;;;;;0.57;0.43;;;;;;;;;;4903026;28;20142;-67
2022/11/22 14:44:00;;;;;;;0.63;0.52;;;;;;;;;;4944640;28;20054;-67
2022/11/22 14:46:31;;;;;;;1.17;0.60;;;;;;;;;;4916094;28;20075;-67
2022/11/22 14:49:00;;;;;;;0.98;0.73;;;;;;;;;;4904792;28;20050;-67
2022/11/22 14:51:28;;;;;;;1.23;0.60;;;;;;;;;;4907603;28;20054;-67
2022/11/22 14:53:56;;;;;;;0.55;0.40;;;;;;;;;;4949444;28;20060;-67
2022/11/22 14:56:24;;;;;;;1.25;0.35;;;;;;;;;;4947314;28;20136;-67
2022/11/22 14:58:56;;;;;;;4.28;0.65;;;;;;;;;;4926043;28;20061;-67
2022/11/22 15:01:41;;;;;;;1.05;0.50;;;;;;;;;;4916698;28;20074;-68
2022/11/22 15:04:34;;;;;;;1.08;0.60;;;;;;;;;;4956217;28;20058;-68
2022/11/22 15:07:07;;;;;;;0.73;0.43;;;;;;;;;;4872636;28;20066;-67
2022/11/22 15:10:11;;;;;;;1.05;0.60;;;;;;;;;;4919201;28;20071;-67
2022/11/22 15:12:44;;;;;;;1.25;0.63;;;;;;;;;;4894868;29;20091;-70